sensor_id;sensor_type;location;lat;lon;timestamp;pressure;altitude;pressure_sealevel;temperature;humidity
30714;BME280;17465;47.934;33.430;2022-10-01T00:02:17;76710.08;;;-140.43;93.52
30714;BME280;17465;47.934;33.430;2022-10-01T00:04:48;76695.16;;;-140.43;92.93
30714;BME280;17465;47.934;33.430;2022-10-01T00:07:18;76695.16;;;-140.43;92.93
30714;BME280;17465;47.934;33.430;2022-10-01T00:09:48;76696.23;;;-140.43;93.29
30714;BME280;17465;47.934;33.430;2022-10-01T00:12:18;76699.42;;;-140.43;93.44
30714;BME280;17465;47.934;33.430;2022-10-01T00:14:48;76699.42;;;-140.43;93.44
30714;BME280;17465;47.934;33.430;2022-10-01T00:17:19;76706.88;;;-140.43;93.58
30714;BME280;17465;47.934;33.430;2022-10-01T00:19:50;76699.42;;;-140.43;93.35
30714;BME280;17465;47.934;33.430;2022-10-01T00:22:20;76677.05;;;-140.43;92.25
30714;BME280;17465;47.934;33.430;2022-10-01T00:24:51;76674.92;;;-140.43;91.88
30714;BME280;17465;47.934;33.430;2022-10-01T00:27:22;76675.99;;;-140.43;92.20
30714;BME280;17465;47.934;33.430;2022-10-01T00:29:52;76670.66;;;-140.43;91.64
30714;BME280;17465;47.934;33.430;2022-10-01T00:32:23;76670.66;;;-140.43;91.64
30714;BME280;17465;47.934;33.430;2022-10-01T00:34:54;76668.53;;;-140.43;91.40
30714;BME280;17465;47.934;33.430;2022-10-01T00:37:24;76668.53;;;-140.43;91.40
30714;BME280;17465;47.934;33.430;2022-10-01T00:39:55;76681.31;;;-140.43;92.07
30714;BME280;17465;47.934;33.430;2022-10-01T00:45:16;76674.92;;;-140.43;91.60
30714;BME280;17465;47.934;33.430;2022-10-01T00:47:53;76674.92;;;-140.43;91.18
30714;BME280;17465;47.934;33.430;2022-10-01T00:50:32;76672.80;;;-140.43;90.95
30714;BME280;17465;47.934;33.430;2022-10-01T00:55:56;76661.08;;;-140.43;89.89
30714;BME280;17465;47.934;33.430;2022-10-01T00:58:27;76663.21;;;-140.43;89.47
30714;BME280;17465;47.934;33.430;2022-10-01T01:00:57;76661.08;;;-140.43;89.17
30714;BME280;17465;47.934;33.430;2022-10-01T01:03:28;76686.64;;;-140.43;90.17
30714;BME280;17465;47.934;33.430;2022-10-01T01:05:59;76686.64;;;-140.43;90.17
30714;BME280;17465;47.934;33.430;2022-10-01T01:08:29;76671.73;;;-140.43;89.54
30714;BME280;17465;47.934;33.430;2022-10-01T01:14:05;76666.41;;;-140.43;89.25
30714;BME280;17465;47.934;33.430;2022-10-01T01:16:55;76670.66;;;-140.43;88.23
30714;BME280;17465;47.934;33.430;2022-10-01T01:22:10;76678.13;;;-140.43;88.13
30714;BME280;17465;47.934;33.430;2022-10-01T01:27:32;76670.66;;;-140.43;88.07
30714;BME280;17465;47.934;33.430;2022-10-01T01:30:12;76674.92;;;-140.43;87.66
30714;BME280;17465;47.934;33.430;2022-10-01T01:32:42;76655.75;;;-140.43;87.27
30714;BME280;17465;47.934;33.430;2022-10-01T01:35:40;76677.05;;;-140.43;87.58
30714;BME280;17465;47.934;33.430;2022-10-01T01:38:10;76681.31;;;-140.43;88.37
30714;BME280;17465;47.934;33.430;2022-10-01T01:40:43;76687.70;;;-140.43;88.52
30714;BME280;17465;47.934;33.430;2022-10-01T01:43:17;76687.70;;;-140.43;88.52
30714;BME280;17465;47.934;33.430;2022-10-01T01:45:50;76690.91;;;-140.43;88.51
30714;BME280;17465;47.934;33.430;2022-10-01T01:48:24;76713.27;;;-140.43;88.96
30714;BME280;17465;47.934;33.430;2022-10-01T01:53:45;76685.58;;;-140.43;88.29
30714;BME280;17465;47.934;33.430;2022-10-01T01:59:07;76685.58;;;-140.43;88.19
30714;BME280;17465;47.934;33.430;2022-10-01T02:01:40;76697.30;;;-140.43;88.55
30714;BME280;17465;47.934;33.430;2022-10-01T02:04:37;76700.48;;;-140.43;89.51
30714;BME280;17465;47.934;33.430;2022-10-01T02:13:33;76718.59;;;-140.43;89.72
30714;BME280;17465;47.934;33.430;2022-10-01T02:21:20;76735.64;;;-140.43;90.70
30714;BME280;17465;47.934;33.430;2022-10-01T02:23:57;76738.83;;;-140.43;90.89
30714;BME280;17465;47.934;33.430;2022-10-01T02:26:28;76734.57;;;-140.43;91.03
30714;BME280;17465;47.934;33.430;2022-10-01T02:29:03;76722.86;;;-140.43;90.76
30714;BME280;17465;47.934;33.430;2022-10-01T02:31:34;76722.86;;;-140.43;90.76
30714;BME280;17465;47.934;33.430;2022-10-01T02:34:08;76728.18;;;-140.43;91.31
30714;BME280;17465;47.934;33.430;2022-10-01T02:36:43;76728.18;;;-140.43;91.31
30714;BME280;17465;47.934;33.430;2022-10-01T02:39:15;76731.38;;;-140.43;91.13
30714;BME280;17465;47.934;33.430;2022-10-01T02:41:49;76745.22;;;-140.43;91.88
30714;BME280;17465;47.934;33.430;2022-10-01T02:44:23;76728.18;;;-140.43;91.67
30714;BME280;17465;47.934;33.430;2022-10-01T02:47:02;76727.12;;;-140.43;91.63
30714;BME280;17465;47.934;33.430;2022-10-01T02:49:35;76727.12;;;-140.43;91.68
30714;BME280;17465;47.934;33.430;2022-10-01T02:58:13;76758.00;;;-140.43;92.56
30714;BME280;17465;47.934;33.430;2022-10-01T03:00:44;76758.00;;;-140.43;92.56
30714;BME280;17465;47.934;33.430;2022-10-01T03:03:14;76769.72;;;-140.43;93.81
30714;BME280;17465;47.934;33.430;2022-10-01T03:05:44;76769.72;;;-140.43;93.81
30714;BME280;17465;47.934;33.430;2022-10-01T03:08:15;76771.85;;;-140.43;94.03
30714;BME280;17465;47.934;33.430;2022-10-01T03:10:46;76772.91;;;-140.43;94.04
30714;BME280;17465;47.934;33.430;2022-10-01T03:13:16;76781.44;;;-140.43;94.49
30714;BME280;17465;47.934;33.430;2022-10-01T03:15:47;76778.23;;;-140.43;94.72
30714;BME280;17465;47.934;33.430;2022-10-01T03:18:25;76794.22;;;-140.43;95.55
30714;BME280;17465;47.934;33.430;2022-10-01T03:21:03;76794.22;;;-140.43;95.55
30714;BME280;17465;47.934;33.430;2022-10-01T03:23:34;76792.09;;;-140.43;94.76
30714;BME280;17465;47.934;33.430;2022-10-01T03:26:04;76775.05;;;-140.43;94.57
30714;BME280;17465;47.934;33.430;2022-10-01T03:28:34;76773.98;;;-140.43;94.62
30714;BME280;17465;47.934;33.430;2022-10-01T03:31:10;76782.50;;;-140.43;94.79
30714;BME280;17465;47.934;33.430;2022-10-01T03:33:41;76799.54;;;-140.43;94.97
30714;BME280;17465;47.934;33.430;2022-10-01T03:36:12;76781.44;;;-140.43;94.58
30714;BME280;17465;47.934;33.430;2022-10-01T03:38:42;76799.54;;;-140.43;94.87
30714;BME280;17465;47.934;33.430;2022-10-01T03:41:12;76803.80;;;-140.43;94.05
30714;BME280;17465;47.934;33.430;2022-10-01T03:43:43;76803.80;;;-140.43;94.05
30714;BME280;17465;47.934;33.430;2022-10-01T03:46:14;76765.46;;;-140.43;92.26
30714;BME280;17465;47.934;33.430;2022-10-01T03:48:44;76761.20;;;-140.43;91.83
30714;BME280;17465;47.934;33.430;2022-10-01T03:51:14;76753.74;;;-140.43;90.76
30714;BME280;17465;47.934;33.430;2022-10-01T03:53:47;76753.74;;;-140.43;90.76
30714;BME280;17465;47.934;33.430;2022-10-01T03:56:17;76742.03;;;-140.43;89.24
30714;BME280;17465;47.934;33.430;2022-10-01T03:58:47;76742.03;;;-140.43;89.24
30714;BME280;17465;47.934;33.430;2022-10-01T04:01:17;76730.31;;;-140.43;88.21
30714;BME280;17465;47.934;33.430;2022-10-01T04:03:49;76730.31;;;-140.43;88.21
30714;BME280;17465;47.934;33.430;2022-10-01T04:06:20;76723.92;;;-140.43;88.60
30714;BME280;17465;47.934;33.430;2022-10-01T04:08:51;76732.44;;;-140.43;88.96
30714;BME280;17465;47.934;33.430;2022-10-01T04:11:22;76732.44;;;-140.43;89.28
30714;BME280;17465;47.934;33.430;2022-10-01T04:13:53;76732.44;;;-140.43;89.45
30714;BME280;17465;47.934;33.430;2022-10-01T04:16:23;76732.44;;;-140.43;89.45
30714;BME280;17465;47.934;33.430;2022-10-01T04:18:54;76727.12;;;-140.43;88.90
30714;BME280;17465;47.934;33.430;2022-10-01T04:21:24;76710.08;;;-140.43;88.21
30714;BME280;17465;47.934;33.430;2022-10-01T04:23:55;76720.73;;;-140.43;88.26
30714;BME280;17465;47.934;33.430;2022-10-01T04:26:26;76730.31;;;-140.43;89.09
30714;BME280;17465;47.934;33.430;2022-10-01T04:28:56;76718.59;;;-140.43;89.09
30714;BME280;17465;47.934;33.430;2022-10-01T04:31:26;76718.59;;;-140.43;88.45
30714;BME280;17465;47.934;33.430;2022-10-01T04:33:57;76702.62;;;-140.43;88.29
30714;BME280;17465;47.934;33.430;2022-10-01T04:36:28;76702.62;;;-140.43;88.29
30714;BME280;17465;47.934;33.430;2022-10-01T04:38:59;76705.81;;;-140.43;87.92
30714;BME280;17465;47.934;33.430;2022-10-01T04:41:31;76705.81;;;-140.43;87.92
30714;BME280;17465;47.934;33.430;2022-10-01T04:44:02;76688.77;;;-140.43;87.02
30714;BME280;17465;47.934;33.430;2022-10-01T04:46:33;76675.99;;;-140.43;87.30
30714;BME280;17465;47.934;33.430;2022-10-01T04:49:03;76658.95;;;-140.43;87.12
30714;BME280;17465;47.934;33.430;2022-10-01T04:51:34;76658.95;;;-140.43;87.12
30714;BME280;17465;47.934;33.430;2022-10-01T04:54:05;76635.52;;;-140.43;86.48
30714;BME280;17465;47.934;33.430;2022-10-01T04:56:36;76633.39;;;-140.43;85.96
30714;BME280;17465;47.934;33.430;2022-10-01T04:59:06;76646.17;;;-140.43;86.66
30714;BME280;17465;47.934;33.430;2022-10-01T05:01:37;76646.17;;;-140.43;86.66
30714;BME280;17465;47.934;33.430;2022-10-01T05:04:08;76627.00;;;-140.43;85.78
30714;BME280;17465;47.934;33.430;2022-10-01T05:06:38;76624.87;;;-140.43;86.53
30714;BME280;17465;47.934;33.430;2022-10-01T05:09:09;76624.87;;;-140.43;86.53
30714;BME280;17465;47.934;33.430;2022-10-01T05:11:39;76613.16;;;-140.43;86.40
30714;BME280;17465;47.934;33.430;2022-10-01T05:14:11;76606.77;;;-140.43;86.18
30714;BME280;17465;47.934;33.430;2022-10-01T05:16:41;76597.17;;;-140.43;85.89
30714;BME280;17465;47.934;33.430;2022-10-01T05:19:12;76597.17;;;-140.43;85.89
30714;BME280;17465;47.934;33.430;2022-10-01T05:21:43;76596.11;;;-140.43;86.57
30714;BME280;17465;47.934;33.430;2022-10-01T05:24:13;76581.20;;;-140.43;86.37
30714;BME280;17465;47.934;33.430;2022-10-01T05:26:43;76574.81;;;-140.43;86.22
30714;BME280;17465;47.934;33.430;2022-10-01T05:29:13;76574.81;;;-140.43;86.22
30714;BME280;17465;47.934;33.430;2022-10-01T05:31:43;76575.88;;;-140.43;87.21
30714;BME280;17465;47.934;33.430;2022-10-01T05:34:14;76582.27;;;-140.43;87.46
30714;BME280;17465;47.934;33.430;2022-10-01T05:36:45;76582.27;;;-140.43;87.46
30714;BME280;17465;47.934;33.430;2022-10-01T05:39:15;76583.33;;;-140.43;87.93
30714;BME280;17465;47.934;33.430;2022-10-01T05:41:45;76519.42;;;-140.43;86.48
30714;BME280;17465;47.934;33.430;2022-10-01T05:44:16;76472.56;;;-140.43;84.79
30714;BME280;17465;47.934;33.430;2022-10-01T05:46:47;76385.23;;;-140.43;80.93
30714;BME280;17465;47.934;33.430;2022-10-01T05:49:17;76335.18;;;-140.43;78.66
30714;BME280;17465;47.934;33.430;2022-10-01T05:51:48;76293.65;;;-140.43;77.15
30714;BME280;17465;47.934;33.430;2022-10-01T05:54:18;76219.10;;;-140.43;74.26
30714;BME280;17465;47.934;33.430;2022-10-01T05:56:49;76169.05;;;-140.43;72.62
30714;BME280;17465;47.934;33.430;2022-10-01T05:59:20;76169.05;;;-140.43;72.62
30714;BME280;17465;47.934;33.430;2022-10-01T06:01:50;76134.98;;;-140.43;70.23
30714;BME280;17465;47.934;33.430;2022-10-01T06:04:21;76134.98;;;-140.43;70.23
30714;BME280;17465;47.934;33.430;2022-10-01T06:06:55;76153.08;;;-140.43;70.39
30714;BME280;17465;47.934;33.430;2022-10-01T06:09:26;76223.36;;;-140.43;72.86
30714;BME280;17465;47.934;33.430;2022-10-01T06:11:57;76223.36;;;-140.43;72.86
30714;BME280;17465;47.934;33.430;2022-10-01T06:14:28;76175.44;;;-140.43;71.55
30714;BME280;17465;47.934;33.430;2022-10-01T06:16:58;76175.44;;;-140.43;71.55
30714;BME280;17465;47.934;33.430;2022-10-01T06:19:29;76189.28;;;-140.43;71.61
30714;BME280;17465;47.934;33.430;2022-10-01T06:21:59;76203.13;;;-140.43;71.77
30714;BME280;17465;47.934;33.430;2022-10-01T06:24:30;76262.77;;;-140.43;73.84
30714;BME280;17465;47.934;33.430;2022-10-01T06:27:00;76314.95;;;-140.43;75.22
30714;BME280;17465;47.934;33.430;2022-10-01T06:29:31;76314.95;;;-140.43;75.22
30714;BME280;17465;47.934;33.430;2022-10-01T06:32:02;76314.95;;;-140.43;75.58
30714;BME280;17465;47.934;33.430;2022-10-01T06:34:33;76280.88;;;-140.43;75.09
30714;BME280;17465;47.934;33.430;2022-10-01T06:37:04;76316.02;;;-140.43;75.90
30714;BME280;17465;47.934;33.430;2022-10-01T06:39:36;76316.02;;;-140.43;75.90
30714;BME280;17465;47.934;33.430;2022-10-01T06:42:06;76283.00;;;-140.43;75.64
30714;BME280;17465;47.934;33.430;2022-10-01T06:44:37;76385.23;;;-140.43;78.18
30714;BME280;17465;47.934;33.430;2022-10-01T06:47:07;76385.23;;;-140.43;78.18
30714;BME280;17465;47.934;33.430;2022-10-01T06:49:38;76459.78;;;-140.43;81.11
30714;BME280;17465;47.934;33.430;2022-10-01T06:52:09;76459.78;;;-140.43;81.11
30714;BME280;17465;47.934;33.430;2022-10-01T06:54:44;76533.27;;;-140.43;84.26
30714;BME280;17465;47.934;33.430;2022-10-01T06:57:14;76535.41;;;-140.43;85.36
30714;BME280;17465;47.934;33.430;2022-10-01T06:59:45;76619.55;;;-140.43;89.31
30714;BME280;17465;47.934;33.430;2022-10-01T07:05:12;76602.50;;;-140.43;89.18
30714;BME280;17465;47.934;33.430;2022-10-01T07:07:42;76640.84;;;-140.43;92.58
30714;BME280;17465;47.934;33.430;2022-10-01T07:10:14;76640.84;;;-140.43;92.58
30714;BME280;17465;47.934;33.430;2022-10-01T07:12:45;76632.33;;;-140.43;92.48
30714;BME280;17465;47.934;33.430;2022-10-01T07:15:19;76663.21;;;-140.43;94.18
30714;BME280;17465;47.934;33.430;2022-10-01T07:17:51;76669.59;;;-140.43;95.33
30714;BME280;17465;47.934;33.430;2022-10-01T07:20:22;76672.80;;;-140.43;95.33
30714;BME280;17465;47.934;33.430;2022-10-01T07:22:59;76672.80;;;-140.43;95.33
30714;BME280;17465;47.934;33.430;2022-10-01T07:25:30;76658.95;;;-140.43;96.32
30714;BME280;17465;47.934;33.430;2022-10-01T07:28:03;76658.95;;;-140.43;96.32
30714;BME280;17465;47.934;33.430;2022-10-01T07:30:33;76614.22;;;-140.43;94.92
30714;BME280;17465;47.934;33.430;2022-10-01T07:33:04;76593.98;;;-140.43;94.55
30714;BME280;17465;47.934;33.430;2022-10-01T07:35:36;76593.98;;;-140.43;94.55
30714;BME280;17465;47.934;33.430;2022-10-01T07:38:06;76581.20;;;-140.43;93.48
30714;BME280;17465;47.934;33.430;2022-10-01T07:40:38;76581.20;;;-140.43;93.48
30714;BME280;17465;47.934;33.430;2022-10-01T07:43:09;76546.05;;;-140.43;92.61
30714;BME280;17465;47.934;33.430;2022-10-01T07:45:39;76490.67;;;-140.43;90.31
30714;BME280;17465;47.934;33.430;2022-10-01T07:48:11;76490.67;;;-140.43;90.31
30714;BME280;17465;47.934;33.430;2022-10-01T07:50:43;76441.69;;;-140.43;88.45
30714;BME280;17465;47.934;33.430;2022-10-01T07:53:14;76365.00;;;-140.43;85.02
30714;BME280;17465;47.934;33.430;2022-10-01T07:55:46;76365.00;;;-140.43;85.02
30714;BME280;17465;47.934;33.430;2022-10-01T07:58:16;76322.41;;;-140.43;83.34
30714;BME280;17465;47.934;33.430;2022-10-01T08:00:46;76275.55;;;-140.43;81.91
30714;BME280;17465;47.934;33.430;2022-10-01T08:03:17;76243.59;;;-140.43;80.25
30714;BME280;17465;47.934;33.430;2022-10-01T08:05:47;76088.13;;;-140.43;74.38
30714;BME280;17465;47.934;33.430;2022-10-01T08:08:18;76088.13;;;-140.43;74.38
30714;BME280;17465;47.934;33.430;2022-10-01T08:10:48;76157.34;;;-140.43;75.51
30714;BME280;17465;47.934;33.430;2022-10-01T08:13:19;75982.70;;;-140.43;70.58
30714;BME280;17465;47.934;33.430;2022-10-01T08:15:52;75982.70;;;-140.43;70.58
30714;BME280;17465;47.934;33.430;2022-10-01T08:18:23;75986.95;;;-140.43;69.73
30714;BME280;17465;47.934;33.430;2022-10-01T08:20:55;75947.55;;;-140.43;68.17
30714;BME280;17465;47.934;33.430;2022-10-01T08:23:25;75958.20;;;-140.43;68.36
30714;BME280;17465;47.934;33.430;2022-10-01T08:26:00;75970.98;;;-140.43;69.18
30714;BME280;17465;47.934;33.430;2022-10-01T08:28:33;75970.98;;;-140.43;69.18
30714;BME280;17465;47.934;33.430;2022-10-01T08:31:05;75898.57;;;-140.43;66.90
30714;BME280;17465;47.934;33.430;2022-10-01T08:33:37;75990.15;;;-140.43;68.67
30714;BME280;17465;47.934;33.430;2022-10-01T08:36:08;75796.35;;;-140.43;64.78
30714;BME280;17465;47.934;33.430;2022-10-01T08:38:39;75796.35;;;-140.43;64.78
30714;BME280;17465;47.934;33.430;2022-10-01T08:43:52;75829.36;;;-140.43;63.02
30714;BME280;17465;47.934;33.430;2022-10-01T08:46:25;75829.36;;;-140.43;63.02
30714;BME280;17465;47.934;33.430;2022-10-01T08:49:29;75879.41;;;-140.43;63.99
30714;BME280;17465;47.934;33.430;2022-10-01T08:52:08;75915.61;;;-140.43;66.72
30714;BME280;17465;47.934;33.430;2022-10-01T08:55:04;75915.61;;;-140.43;66.72
30714;BME280;17465;47.934;33.430;2022-10-01T08:57:36;75939.03;;;-140.43;68.38
30714;BME280;17465;47.934;33.430;2022-10-01T09:00:14;75939.03;;;-140.43;68.38
30714;BME280;17465;47.934;33.430;2022-10-01T09:02:46;75871.95;;;-140.43;66.20
30714;BME280;17465;47.934;33.430;2022-10-01T09:14:11;75715.42;;;-140.43;61.42
30714;BME280;17465;47.934;33.430;2022-10-01T09:25:30;75742.05;;;-140.43;61.86
30714;BME280;17465;47.934;33.430;2022-10-01T09:28:19;75812.33;;;-140.43;62.36
30714;BME280;17465;47.934;33.430;2022-10-01T09:30:56;75829.36;;;-140.43;62.16
30714;BME280;17465;47.934;33.430;2022-10-01T09:33:41;75760.15;;;-140.43;60.30
30714;BME280;17465;47.934;33.430;2022-10-01T09:41:51;75854.91;;;-140.43;64.25
30714;BME280;17465;47.934;33.430;2022-10-01T09:44:27;75871.95;;;-140.43;63.98
30714;BME280;17465;47.934;33.430;2022-10-01T09:46:58;75923.06;;;-140.43;66.34
30714;BME280;17465;47.934;33.430;2022-10-01T09:49:38;75906.03;;;-140.43;65.89
30714;BME280;17465;47.934;33.430;2022-10-01T09:52:38;75866.63;;;-140.43;64.74
30714;BME280;17465;47.934;33.430;2022-10-01T09:55:29;75883.66;;;-140.43;66.05
30714;BME280;17465;47.934;33.430;2022-10-01T09:58:08;75841.07;;;-140.43;64.23
30714;BME280;17465;47.934;33.430;2022-10-01T10:00:43;75825.09;;;-140.43;64.40
30714;BME280;17465;47.934;33.430;2022-10-01T10:03:24;75759.08;;;-140.43;61.67
30714;BME280;17465;47.934;33.430;2022-10-01T10:05:58;75759.08;;;-140.43;61.67
30714;BME280;17465;47.934;33.430;2022-10-01T10:08:36;75810.19;;;-140.43;63.45
30714;BME280;17465;47.934;33.430;2022-10-01T10:11:18;75844.27;;;-140.43;65.05
30714;BME280;17465;47.934;33.430;2022-10-01T10:13:58;75846.39;;;-140.43;64.37
30714;BME280;17465;47.934;33.430;2022-10-01T10:16:33;75900.70;;;-140.43;65.50
30714;BME280;17465;47.934;33.430;2022-10-01T10:19:06;75892.19;;;-140.43;66.54
30714;BME280;17465;47.934;33.430;2022-10-01T10:21:51;75892.19;;;-140.43;66.54
30714;BME280;17465;47.934;33.430;2022-10-01T10:24:31;75903.90;;;-140.43;66.56
30714;BME280;17465;47.934;33.430;2022-10-01T10:27:23;75840.01;;;-140.43;65.09
30714;BME280;17465;47.934;33.430;2022-10-01T10:30:05;75853.84;;;-140.43;66.40
30714;BME280;17465;47.934;33.430;2022-10-01T10:32:36;75810.19;;;-140.43;64.78
30714;BME280;17465;47.934;33.430;2022-10-01T10:35:14;75810.19;;;-140.43;64.78
30714;BME280;17465;47.934;33.430;2022-10-01T10:37:49;75789.96;;;-140.43;63.69
30714;BME280;17465;47.934;33.430;2022-10-01T10:40:24;75801.67;;;-140.43;63.46
30714;BME280;17465;47.934;33.430;2022-10-01T10:43:04;75763.34;;;-140.43;62.83
30714;BME280;17465;47.934;33.430;2022-10-01T10:45:36;75817.64;;;-140.43;64.75
30714;BME280;17465;47.934;33.430;2022-10-01T10:48:18;75706.91;;;-140.43;61.37
30714;BME280;17465;47.934;33.430;2022-10-01T10:50:58;75649.41;;;-140.43;60.16
30714;BME280;17465;47.934;33.430;2022-10-01T10:53:42;75649.41;;;-140.43;60.16
30714;BME280;17465;47.934;33.430;2022-10-01T10:56:21;75649.41;;;-140.43;57.81
30714;BME280;17465;47.934;33.430;2022-10-01T10:59:15;75580.20;;;-140.43;55.52
30714;BME280;17465;47.934;33.430;2022-10-01T11:01:30;75580.20;;;-140.43;55.52
30714;BME280;17465;47.934;33.430;2022-10-01T11:04:01;75588.72;;;-140.43;57.08
30714;BME280;17465;47.934;33.430;2022-10-01T11:06:32;75473.73;;;-140.43;55.40
30714;BME280;17465;47.934;33.430;2022-10-01T11:09:05;75492.89;;;-140.43;53.93
30714;BME280;17465;47.934;33.430;2022-10-01T11:15:00;75437.53;;;-140.43;53.76
30714;BME280;17465;47.934;33.430;2022-10-01T11:20:32;75392.81;;;-140.43;50.97
30714;BME280;17465;47.934;33.430;2022-10-01T11:25:56;75388.55;;;-140.43;50.97
30714;BME280;17465;47.934;33.430;2022-10-01T11:34:20;75431.14;;;-140.43;52.30
30714;BME280;17465;47.934;33.430;2022-10-01T11:37:12;75433.27;;;-140.43;52.26
30714;BME280;17465;47.934;33.430;2022-10-01T11:39:41;75414.11;;;-140.43;53.84
30714;BME280;17465;47.934;33.430;2022-10-01T11:45:20;75406.66;;;-140.43;49.98
30714;BME280;17465;47.934;33.430;2022-10-01T11:47:54;75406.66;;;-140.43;49.98
30714;BME280;17465;47.934;33.430;2022-10-01T11:53:36;75268.25;;;-140.43;47.37
30714;BME280;17465;47.934;33.430;2022-10-01T11:56:11;75391.75;;;-140.43;48.32
30714;BME280;17465;47.934;33.430;2022-10-01T12:01:30;75267.19;;;-140.43;47.17
30714;BME280;17465;47.934;33.430;2022-10-01T12:06:59;75105.36;;;-140.43;43.83
30714;BME280;17465;47.934;33.430;2022-10-01T12:12:30;75144.75;;;-140.43;41.37
30714;BME280;17465;47.934;33.430;2022-10-01T12:15:48;75111.75;;;-140.43;39.65
30714;BME280;17465;47.934;33.430;2022-10-01T12:18:26;75111.75;;;-140.43;39.65
30714;BME280;17465;47.934;33.430;2022-10-01T12:20:57;75029.78;;;-140.43;39.22
30714;BME280;17465;47.934;33.430;2022-10-01T12:24:06;75038.30;;;-140.43;39.72
30714;BME280;17465;47.934;33.430;2022-10-01T12:29:36;74946.74;;;-140.43;37.06
30714;BME280;17465;47.934;33.430;2022-10-01T12:32:15;74829.64;;;-140.43;33.32
30714;BME280;17465;47.934;33.430;2022-10-01T12:34:55;74897.77;;;-140.43;33.32
30714;BME280;17465;47.934;33.430;2022-10-01T12:37:38;75002.09;;;-140.43;33.47
30714;BME280;17465;47.934;33.430;2022-10-01T12:54:47;74894.58;;;-140.43;32.21
30714;BME280;17465;47.934;33.430;2022-10-01T12:57:41;74847.74;;;-140.43;31.61
30714;BME280;17465;47.934;33.430;2022-10-01T13:13:57;74870.09;;;-140.43;32.07
30714;BME280;17465;47.934;33.430;2022-10-01T13:22:03;74973.36;;;-140.43;32.86
30714;BME280;17465;47.934;33.430;2022-10-01T13:24:44;74973.36;;;-140.43;32.86
30714;BME280;17465;47.934;33.430;2022-10-01T13:30:23;74801.97;;;-140.43;31.09
30714;BME280;17465;47.934;33.430;2022-10-01T13:32:59;74941.42;;;-140.43;32.69
30714;BME280;17465;47.934;33.430;2022-10-01T13:36:03;75008.48;;;-140.43;32.69
30714;BME280;17465;47.934;33.430;2022-10-01T13:38:45;75008.48;;;-140.43;32.69
30714;BME280;17465;47.934;33.430;2022-10-01T13:41:31;75171.36;;;-140.43;34.80
30714;BME280;17465;47.934;33.430;2022-10-01T13:47:03;75347.03;;;-140.43;37.67
30714;BME280;17465;47.934;33.430;2022-10-01T13:49:33;75384.30;;;-140.43;39.31
30714;BME280;17465;47.934;33.430;2022-10-01T13:52:17;75422.63;;;-140.43;39.33
30714;BME280;17465;47.934;33.430;2022-10-01T13:54:45;75422.63;;;-140.43;39.33
30714;BME280;17465;47.934;33.430;2022-10-01T14:05:55;75519.52;;;-140.43;41.49
30714;BME280;17465;47.934;33.430;2022-10-01T14:08:39;75519.52;;;-140.43;41.49
30714;BME280;17465;47.934;33.430;2022-10-01T14:11:15;75553.58;;;-140.43;42.44
30714;BME280;17465;47.934;33.430;2022-10-01T14:13:55;75529.09;;;-140.43;40.97
30714;BME280;17465;47.934;33.430;2022-10-01T14:16:39;75556.78;;;-140.43;42.00
30714;BME280;17465;47.934;33.430;2022-10-01T14:19:09;75555.71;;;-140.43;42.76
30714;BME280;17465;47.934;33.430;2022-10-01T14:22:10;75555.71;;;-140.43;42.76
30714;BME280;17465;47.934;33.430;2022-10-01T14:30:22;75619.59;;;-140.43;46.24
30714;BME280;17465;47.934;33.430;2022-10-01T14:38:47;75685.61;;;-140.43;50.83
30714;BME280;17465;47.934;33.430;2022-10-01T14:41:20;75734.59;;;-140.43;52.78
30714;BME280;17465;47.934;33.430;2022-10-01T14:43:52;75734.59;;;-140.43;52.78
30714;BME280;17465;47.934;33.430;2022-10-01T14:46:26;75770.80;;;-140.43;57.39
30714;BME280;17465;47.934;33.430;2022-10-01T14:49:03;75815.52;;;-140.43;59.52
30714;BME280;17465;47.934;33.430;2022-10-01T14:51:34;75815.52;;;-140.43;59.52
30714;BME280;17465;47.934;33.430;2022-10-01T14:54:12;75853.84;;;-140.43;61.46
30714;BME280;17465;47.934;33.430;2022-10-01T14:56:43;75862.37;;;-140.43;61.99
30714;BME280;17465;47.934;33.430;2022-10-01T14:59:29;75862.37;;;-140.43;57.64
30714;BME280;17465;47.934;33.430;2022-10-01T15:02:21;75862.37;;;-140.43;57.64
30714;BME280;17465;47.934;33.430;2022-10-01T15:04:55;75912.41;;;-140.43;64.11
30714;BME280;17465;47.934;33.430;2022-10-01T15:07:31;75922.00;;;-140.43;64.49
30714;BME280;17465;47.934;33.430;2022-10-01T15:10:11;75922.00;;;-140.43;64.49
30714;BME280;17465;47.934;33.430;2022-10-01T15:12:47;75949.69;;;-140.43;64.82
30714;BME280;17465;47.934;33.430;2022-10-01T15:15:18;75986.95;;;-140.43;65.80
30714;BME280;17465;47.934;33.430;2022-10-01T15:17:52;75986.95;;;-140.43;65.80
30714;BME280;17465;47.934;33.430;2022-10-01T15:20:23;76013.58;;;-140.43;69.88
30714;BME280;17465;47.934;33.430;2022-10-01T15:22:57;76026.36;;;-140.43;67.34
30714;BME280;17465;47.934;33.430;2022-10-01T15:25:30;76026.36;;;-140.43;67.34
30714;BME280;17465;47.934;33.430;2022-10-01T15:28:13;76027.42;;;-140.43;68.29
30714;BME280;17465;47.934;33.430;2022-10-01T15:30:51;76060.43;;;-140.43;69.03
30714;BME280;17465;47.934;33.430;2022-10-01T15:33:31;76060.43;;;-140.43;69.03
30714;BME280;17465;47.934;33.430;2022-10-01T15:38:48;76074.27;;;-140.43;68.70
30714;BME280;17465;47.934;33.430;2022-10-01T15:41:26;76079.59;;;-140.43;69.84
30714;BME280;17465;47.934;33.430;2022-10-01T15:44:05;76090.25;;;-140.43;71.68
30714;BME280;17465;47.934;33.430;2022-10-01T15:46:36;76099.83;;;-140.43;69.96
30714;BME280;17465;47.934;33.430;2022-10-01T15:49:18;76084.92;;;-140.43;71.87